Keyapaha, South Dakota
Current Conditions -  °F | °C
As of 9:53 AM on Tuesday 21 Oct 2014 (Local Time) from KICR Reporting Station
Clear Clear  
Wind Chill: 65°   Ceiling: Unl
Heat Index: 65°   Visibility: 10mi
Dew Point: 42°   Wind: 22mph
Humidity: 43%   Direction: 200°SSW
Pressure: 29.92"   Gusts: 33mph
Location:  43.2923°N, 99.8934°W
Report Text: KICR 211453Z AUTO 20019G29KT 10SM CLR 18/06 A2992 RMK AO2 PK WND 20030/1430 SLP127 T01830056 53001
Loading
Personal Weather Stations






























Interactive Weather Map
Tropical Storm Tracking
New forecast layout! Learn more

10-Day Weather Forecast

Advertisements
Track Severe Weather on mobile